Time;durP1;ratioP1;P1;durP2;ratioP2;P2;SDS_P1;SDS_P2;PMS_P1;PMS_P2;Temp;Humidity;BMP_temperature;BMP_pressure;BME280_temperature;BME280_humidity;BME280_pressure;Samples;Min_cycle;Max_cycle;Signal;HPM_P1;HPM_P2
2022/05/06 00:00:12;;;;;;;11.63;4.90;;;;;;;7.84;53.07;102068.84;1733079;82;27466;-57
2022/05/06 00:02:41;;;;;;;10.28;3.83;;;;;;;7.84;52.80;102068.84;1740744;81;25644;-57
2022/05/06 00:05:11;;;;;;;9.25;3.67;;;;;;;7.79;53.04;102069.58;1740967;81;25748;-57
2022/05/06 00:07:39;;;;;;;13.13;4.55;;;;;;;7.72;54.01;102077.09;1741251;81;26388;-57
2022/05/06 00:10:09;;;;;;;9.93;4.67;;;;;;;7.66;53.85;102074.27;1740841;81;25798;-57
2022/05/06 00:12:36;;;;;;;7.33;3.87;;;;;;;7.63;54.28;102069.08;1741235;81;27641;-57
2022/05/06 00:15:06;;;;;;;12.00;4.22;;;;;;;7.59;53.92;102077.36;1740878;82;25763;-57
2022/05/06 00:17:35;;;;;;;6.72;3.58;;;;;;;7.58;53.92;102086.34;1740870;82;36320;-57
2022/05/06 00:20:06;;;;;;;12.07;4.42;;;;;;;7.55;54.18;102083.36;1740265;81;25949;-57
2022/05/06 00:22:33;;;;;;;6.47;4.00;;;;;;;7.50;54.03;102083.62;1735099;82;25487;-57
2022/05/06 00:24:59;;;;;;;15.80;4.00;;;;;;;7.48;54.30;102085.54;1735103;82;27639;-57
2022/05/06 00:27:26;;;;;;;13.58;3.90;;;;;;;7.47;54.47;102081.59;1735018;82;25537;-57
2022/05/06 00:29:53;;;;;;;12.05;3.80;;;;;;;7.44;54.77;102084.45;1735222;82;25947;-58
2022/05/06 00:32:21;;;;;;;12.85;4.28;;;;;;;7.36;54.69;102081.69;1734433;82;25804;-58
2022/05/06 00:34:48;;;;;;;7.95;3.85;;;;;;;7.32;54.80;102087.29;1732872;81;25713;-58
2022/05/06 00:37:15;;;;;;;15.90;4.10;;;;;;;7.31;55.11;102090.45;1732696;82;27468;-57
2022/05/06 00:39:42;;;;;;;9.55;3.98;;;;;;;7.26;55.18;102087.63;1732773;82;26423;-58
2022/05/06 00:42:09;;;;;;;13.20;4.65;;;;;;;7.16;54.96;102081.92;1732729;82;25471;-57
2022/05/06 00:44:36;;;;;;;10.30;4.00;;;;;;;7.15;55.30;102083.71;1732615;82;25853;-58
2022/05/06 00:47:05;;;;;;;12.03;4.05;;;;;;;7.12;55.71;102077.20;1732482;82;25772;-56
2022/05/06 00:49:32;;;;;;;9.30;4.20;;;;;;;7.07;55.67;102083.25;1733149;82;27716;-57
2022/05/06 00:51:59;;;;;;;17.98;4.10;;;;;;;7.02;55.80;102087.51;1735178;82;25759;-58
2022/05/06 00:54:26;;;;;;;12.60;4.55;;;;;;;7.02;55.54;102094.69;1735129;82;25772;-57
2022/05/06 00:56:54;;;;;;;12.80;4.58;;;;;;;7.00;56.13;102089.88;1734814;82;27831;-57
2022/05/06 00:59:20;;;;;;;9.58;4.37;;;;;;;6.92;56.27;102096.95;1735226;82;26524;-58
2022/05/06 01:01:47;;;;;;;13.03;4.55;;;;;;;6.87;56.10;102095.86;1736340;81;27498;-58
2022/05/06 01:04:17;;;;;;;12.53;4.25;;;;;;;6.84;55.93;102089.80;1769915;81;25790;-57
2022/05/06 01:06:45;;;;;;;12.20;4.00;;;;;;;6.81;56.27;102088.65;1770142;81;25926;-58
2022/05/06 01:09:18;;;;;;;13.40;5.10;;;;;;;6.76;56.07;102090.67;1769958;81;25786;-57
2022/05/06 01:11:46;;;;;;;16.97;5.47;;;;;;;6.70;56.26;102090.52;1769867;81;25462;-57
2022/05/06 01:14:33;;;;;;;10.32;4.90;;;;;;;6.69;56.54;102084.77;1769988;80;28508;-57
2022/05/06 01:17:02;;;;;;;13.93;4.65;;;;;;;6.67;56.96;102086.20;1769416;80;26982;-56
2022/05/06 01:19:29;;;;;;;9.35;3.98;;;;;;;6.62;57.34;102086.91;1769905;81;25713;-56
2022/05/06 01:21:56;;;;;;;13.15;4.47;;;;;;;6.61;57.62;102086.97;1761496;80;25809;-57
2022/05/06 01:24:25;;;;;;;12.50;4.60;;;;;;;6.62;57.69;102084.24;1759092;81;25731;-57
2022/05/06 01:27:03;;;;;;;15.60;4.40;;;;;;;6.62;58.00;102088.25;1759420;80;27396;-56
2022/05/06 01:29:33;;;;;;;14.45;4.50;;;;;;;6.62;58.30;102088.25;1759137;80;25779;-57
2022/05/06 01:32:02;;;;;;;19.12;4.85;;;;;;;6.62;58.46;102092.72;1754630;81;25660;-56
2022/05/06 01:34:34;;;;;;;12.98;4.70;;;;;;;6.62;58.33;102087.37;1735349;82;25829;-58
2022/05/06 01:37:04;;;;;;;21.25;4.42;;;;;;;6.62;58.22;102088.70;1735613;82;25882;-55
2022/05/06 01:39:37;;;;;;;12.78;4.33;;;;;;;6.58;58.45;102083.53;1735461;82;28553;-56
2022/05/06 01:42:12;;;;;;;10.13;4.42;;;;;;;6.56;58.75;102082.73;1735100;82;25868;-56
2022/05/06 01:44:49;;;;;;;14.18;4.72;;;;;;;6.59;58.83;102091.07;1735356;82;25752;-56
2022/05/06 01:47:23;;;;;;;9.35;3.77;;;;;;;6.65;58.64;102091.23;1735381;82;25840;-57
2022/05/06 01:49:54;;;;;;;17.07;5.17;;;;;;;6.64;58.64;102092.17;1747885;80;25796;-56
2022/05/06 01:52:23;;;;;;;8.78;4.12;;;;;;;6.66;58.57;102084.95;1775020;79;27449;-56
2022/05/06 01:54:50;;;;;;;10.68;4.60;;;;;;;6.69;58.78;102082.09;1774984;80;25831;-56
2022/05/06 01:57:17;;;;;;;9.45;4.03;;;;;;;6.69;58.75;102083.44;1774963;80;26488;-57
2022/05/06 01:59:44;;;;;;;11.53;5.67;;;;;;;6.71;59.02;102085.56;1775291;80;26743;-57
2022/05/06 02:02:13;;;;;;;18.02;4.67;;;;;;;6.69;58.59;102086.98;1747609;80;25720;-56
2022/05/06 02:07:27;;;;;;;14.60;4.70;;;;;;;6.61;58.21;102087.86;1736835;82;25956;-57
2022/05/06 02:09:54;;;;;;;12.10;4.60;;;;;;;6.58;58.48;102092.02;1737183;82;25963;-56
2022/05/06 02:12:22;;;;;;;10.18;3.80;;;;;;;6.55;58.04;102094.83;1737143;82;25779;-56
2022/05/06 02:15:00;;;;;;;8.88;3.67;;;;;;;6.51;57.71;102088.77;1737104;82;25752;-56
2022/05/06 02:17:41;;;;;;;8.30;4.53;;;;;;;6.44;57.63;102094.04;1734983;82;27490;-56
2022/05/06 02:20:29;;;;;;;14.50;5.15;;;;;;;6.37;57.62;102090.80;1734537;81;25535;-56
2022/05/06 02:23:00;;;;;;;9.08;4.50;;;;;;;6.33;57.80;102089.69;1750365;81;25798;-56
2022/05/06 02:25:42;;;;;;;12.35;5.05;;;;;;;6.29;57.81;102087.64;1750405;81;25821;-56
2022/05/06 02:28:14;;;;;;;15.45;5.22;;;;;;;6.24;57.93;102090.55;1750574;81;25809;-56
2022/05/06 02:33:31;;;;;;;15.30;4.83;;;;;;;6.15;57.87;102089.66;1755842;81;25799;-56
2022/05/06 02:36:09;;;;;;;13.93;4.33;;;;;;;6.12;58.25;102101.85;1738449;81;25804;-56
2022/05/06 02:38:37;;;;;;;11.50;4.60;;;;;;;6.09;58.04;102096.64;1757251;81;25795;-56
2022/05/06 02:41:04;;;;;;;15.03;4.75;;;;;;;6.05;58.03;102099.94;1757298;81;25792;-56
2022/05/06 02:43:33;;;;;;;10.98;5.87;;;;;;;6.02;58.34;102098.73;1757464;81;28490;-56
2022/05/06 02:46:01;;;;;;;12.53;5.67;;;;;;;5.99;58.39;102098.91;1757187;81;25851;-56
2022/05/06 02:48:27;;;;;;;11.10;4.35;;;;;;;5.95;58.41;102106.17;1757311;81;25813;-57
2022/05/06 02:50:54;;;;;;;14.35;4.40;;;;;;;5.89;58.46;102099.77;1757435;81;25797;-56
2022/05/06 02:53:22;;;;;;;14.25;4.17;;;;;;;5.87;58.60;102108.80;1757194;81;25796;-57
2022/05/06 02:55:49;;;;;;;14.40;4.95;;;;;;;5.80;58.74;102121.11;1757322;81;27479;-56
2022/05/06 02:58:16;;;;;;;8.78;4.28;;;;;;;5.72;59.03;102120.61;1757248;81;25813;-56
2022/05/06 03:00:44;;;;;;;14.63;4.67;;;;;;;5.67;58.84;102117.27;1757099;81;25794;-56
2022/05/06 03:03:11;;;;;;;14.95;5.47;;;;;;;5.63;58.90;102117.88;1751381;81;25758;-56
2022/05/06 03:05:40;;;;;;;9.98;3.90;;;;;;;5.59;59.04;102125.65;1750948;81;26504;-57
2022/05/06 03:08:07;;;;;;;11.70;4.87;;;;;;;5.57;59.18;102123.52;1751081;81;29598;-57
2022/05/06 03:10:34;;;;;;;17.45;5.62;;;;;;;5.58;59.49;102127.03;1750977;81;25733;-57
2022/05/06 03:13:03;;;;;;;8.45;4.35;;;;;;;5.54;59.40;102120.97;1751084;81;25720;-57
2022/05/06 03:15:31;;;;;;;7.60;4.30;;;;;;;5.53;59.40;102117.91;1751106;81;26541;-57
2022/05/06 03:18:00;;;;;;;16.67;4.75;;;;;;;5.53;59.76;102121.05;1750624;81;25858;-57
2022/05/06 03:20:28;;;;;;;9.58;4.80;;;;;;;5.52;59.72;102124.66;1750928;81;27462;-57
2022/05/06 03:22:56;;;;;;;8.80;4.55;;;;;;;5.56;59.97;102118.25;1739392;81;25521;-57
2022/05/06 03:25:23;;;;;;;12.70;4.75;;;;;;;5.56;60.23;102123.11;1737975;82;25740;-57
2022/05/06 03:28:08;;;;;;;11.40;5.20;;;;;;;5.59;60.85;102122.09;1737776;82;25965;-57
2022/05/06 03:30:44;;;;;;;9.83;4.25;;;;;;;5.64;61.03;102122.29;1738222;82;25705;-56
2022/05/06 03:33:16;;;;;;;13.72;4.30;;;;;;;5.70;61.14;102117.59;1727047;81;28558;-58
2022/05/06 03:35:44;;;;;;;14.87;4.95;;;;;;;5.79;61.45;102119.83;1723962;83;25784;-55
2022/05/06 03:38:14;;;;;;;9.48;4.15;;;;;;;5.83;61.38;102120.58;1723584;82;25779;-57
2022/05/06 03:40:43;;;;;;;9.23;4.17;;;;;;;5.90;61.77;102127.36;1723520;81;25866;-57
2022/05/06 03:43:10;;;;;;;15.78;4.65;;;;;;;5.94;61.62;102121.80;1723680;81;26117;-57
2022/05/06 03:45:39;;;;;;;11.48;4.97;;;;;;;6.01;61.45;102120.20;1723861;81;28317;-57
2022/05/06 03:48:09;;;;;;;8.98;4.42;;;;;;;6.09;61.38;102126.03;1723659;82;25768;-57
2022/05/06 03:53:27;;;;;;;14.98;4.37;;;;;;;6.23;61.35;102127.56;1773165;80;25817;-56
2022/05/06 03:55:54;;;;;;;12.03;4.10;;;;;;;6.29;61.19;102129.55;1773414;79;25731;-56
2022/05/06 03:58:23;;;;;;;14.35;4.62;;;;;;;6.35;61.27;102126.57;1773502;79;27429;-56
2022/05/06 04:00:50;;;;;;;14.50;4.65;;;;;;;6.39;60.90;102123.67;1770323;80;25724;-57
2022/05/06 04:03:17;;;;;;;9.13;4.83;;;;;;;6.47;60.77;102123.30;1737963;82;25771;-57
2022/05/06 04:05:45;;;;;;;11.50;5.05;;;;;;;6.53;60.80;102126.14;1737910;82;25740;-57
2022/05/06 04:08:11;;;;;;;21.90;5.15;;;;;;;6.56;60.52;102132.66;1738210;82;25767;-57
2022/05/06 04:10:40;;;;;;;27.50;5.50;;;;;;;6.60;60.40;102129.36;1738065;82;27638;-56
2022/05/06 04:13:07;;;;;;;16.55;5.15;;;;;;;6.60;60.26;102139.59;1737779;82;25810;-57
2022/05/06 04:15:35;;;;;;;11.28;5.00;;;;;;;6.64;60.22;102138.48;1738167;82;25785;-57
2022/05/06 04:18:05;;;;;;;18.10;5.83;;;;;;;6.68;60.21;102145.42;1737962;82;25823;-57
2022/05/06 04:23:32;;;;;;;10.35;5.30;;;;;;;6.79;60.09;102142.20;1739585;81;27442;-57
2022/05/06 04:26:15;;;;;;;16.55;5.60;;;;;;;6.83;59.88;102141.11;1738705;82;25662;-58
2022/05/06 04:28:43;;;;;;;22.73;6.00;;;;;;;6.88;59.79;102148.42;1739671;82;25784;-58
2022/05/06 04:31:11;;;;;;;23.20;5.10;;;;;;;6.93;59.72;102152.20;1739846;82;25804;-57
2022/05/06 04:33:41;;;;;;;28.05;6.10;;;;;;;6.98;59.53;102150.17;1704821;82;25555;-56
2022/05/06 04:36:10;;;;;;;20.88;5.78;;;;;;;7.04;59.28;102141.81;1699981;83;27632;-57
2022/05/06 04:38:38;;;;;;;21.60;4.95;;;;;;;7.12;58.98;102153.92;1700098;84;25800;-57
2022/05/06 04:41:05;;;;;;;25.05;6.70;;;;;;;7.19;58.83;102152.20;1699982;84;25678;-56
2022/05/06 04:43:34;;;;;;;18.37;4.67;;;;;;;7.25;58.77;102156.83;1699878;84;25793;-57
2022/05/06 04:46:02;;;;;;;65.52;42.20;;;;;;;7.31;58.69;102156.50;1700286;83;25742;-57
2022/05/06 04:48:30;;;;;;;16.80;6.28;;;;;;;7.36;58.79;102166.02;1699847;84;27492;-57
2022/05/06 04:50:58;;;;;;;16.32;5.95;;;;;;;7.41;58.94;102158.23;1703391;82;26769;-57
2022/05/06 04:53:25;;;;;;;15.95;5.30;;;;;;;7.46;58.69;102151.69;1702289;84;25790;-57
2022/05/06 04:55:55;;;;;;;40.55;7.10;;;;;;;7.54;58.58;102155.77;1702272;84;25776;-57
2022/05/06 04:58:24;;;;;;;26.57;6.33;;;;;;;7.62;58.29;102156.21;1701223;84;26118;-57
2022/05/06 05:00:52;;;;;;;29.85;6.33;;;;;;;7.68;57.97;102162.11;1700774;83;27609;-57
2022/05/06 05:03:20;;;;;;;28.73;5.83;;;;;;;7.75;57.72;102163.11;1701926;84;25588;-57
2022/05/06 05:05:49;;;;;;;21.02;6.72;;;;;;;7.82;57.54;102161.36;1702420;84;26062;-57
2022/05/06 05:08:18;;;;;;;26.40;7.67;;;;;;;7.90;57.31;102166.28;1708939;83;25829;-57
2022/05/06 05:10:46;;;;;;;35.00;6.50;;;;;;;7.95;56.99;102153.51;1714805;83;25740;-57
2022/05/06 05:13:14;;;;;;;27.15;6.67;;;;;;;8.04;56.74;102155.28;1714348;83;27480;-58
2022/05/06 05:15:41;;;;;;;33.75;7.62;;;;;;;8.11;56.43;102148.13;1714689;83;25819;-58
2022/05/06 05:18:09;;;;;;;20.02;7.40;;;;;;;8.20;56.32;102153.95;1714103;83;25830;-57
2022/05/06 05:20:37;;;;;;;27.82;7.35;;;;;;;8.25;56.17;102155.40;1714528;83;25861;-57
2022/05/06 05:23:04;;;;;;;51.68;8.78;;;;;;;8.34;56.00;102159.88;1732763;81;25832;-57
2022/05/06 05:25:33;;;;;;;46.05;8.40;;;;;;;8.42;55.84;102161.64;1743441;82;27480;-57
2022/05/06 05:28:00;;;;;;;34.25;8.73;;;;;;;8.51;55.73;102165.63;1743027;81;25643;-57
2022/05/06 05:30:32;;;;;;;41.35;8.70;;;;;;;8.58;55.72;102167.00;1743116;81;25541;-57
2022/05/06 05:33:00;;;;;;;44.18;9.05;;;;;;;8.67;55.68;102172.33;1736765;81;26492;-57
2022/05/06 05:35:29;;;;;;;32.78;8.38;;;;;;;8.75;55.54;102171.39;1732870;82;25761;-57
2022/05/06 05:37:59;;;;;;;31.73;7.65;;;;;;;8.82;55.44;102173.25;1732842;81;27468;-57
2022/05/06 05:40:27;;;;;;;43.68;7.97;;;;;;;8.89;55.25;102167.90;1732768;81;25951;-58
2022/05/06 05:42:54;;;;;;;20.95;7.55;;;;;;;8.96;55.04;102166.58;1733046;82;25791;-57
2022/05/06 05:48:20;;;;;;;25.32;7.80;;;;;;;9.15;54.83;102172.19;1732949;81;25813;-58
2022/05/06 05:50:49;;;;;;;19.20;7.85;;;;;;;9.24;54.75;102172.97;1732651;81;28264;-57
2022/05/06 05:53:18;;;;;;;28.30;6.90;;;;;;;9.33;54.61;102164.81;1732523;82;25800;-57
2022/05/06 05:55:46;;;;;;;22.17;6.80;;;;;;;9.43;54.47;102167.83;1732535;82;25712;-58
2022/05/06 05:58:14;;;;;;;25.82;6.25;;;;;;;9.50;54.36;102167.33;1732357;82;25800;-57
2022/05/06 06:00:42;;;;;;;25.27;6.78;;;;;;;9.59;54.10;102160.53;1732490;82;25507;-58
2022/05/06 06:03:09;;;;;;;18.55;6.83;;;;;;;9.70;54.17;102168.80;1735247;82;28144;-57
2022/05/06 06:05:38;;;;;;;20.08;6.25;;;;;;;9.80;53.85;102169.07;1735342;82;25744;-56
2022/05/06 06:08:05;;;;;;;20.43;6.87;;;;;;;9.92;53.64;102178.17;1735271;82;25805;-57
2022/05/06 06:10:33;;;;;;;17.67;6.25;;;;;;;10.03;53.48;102174.83;1735406;82;25788;-57
2022/05/06 06:13:04;;;;;;;18.23;6.25;;;;;;;10.14;53.22;102176.81;1735428;82;25652;-57
2022/05/06 06:15:32;;;;;;;21.07;6.37;;;;;;;10.25;52.81;102175.65;1735367;82;27490;-57
2022/05/06 06:18:00;;;;;;;22.27;5.83;;;;;;;10.41;52.66;102172.83;1735247;82;25551;-57
2022/05/06 06:20:29;;;;;;;23.05;5.28;;;;;;;10.53;52.53;102178.38;1735246;82;25764;-57
2022/05/06 06:22:56;;;;;;;21.00;5.65;;;;;;;10.63;52.27;102180.84;1741192;82;25811;-58
2022/05/06 06:25:23;;;;;;;26.93;6.25;;;;;;;10.78;51.68;102181.66;1748728;82;25731;-57
2022/05/06 06:27:52;;;;;;;29.50;5.25;;;;;;;10.94;51.31;102183.69;1748964;81;27976;-58
2022/05/06 06:30:21;;;;;;;14.95;4.92;;;;;;;11.09;51.24;102177.75;1748743;82;25781;-58
2022/05/06 06:32:53;;;;;;;18.62;4.35;;;;;;;11.23;50.69;102174.11;1743411;80;25640;-56
2022/05/06 06:35:24;;;;;;;17.80;4.30;;;;;;;11.36;50.55;102170.08;1738674;81;26006;-58
2022/05/06 06:37:53;;;;;;;30.12;4.60;;;;;;;11.49;50.35;102170.08;1738529;81;26531;-57
2022/05/06 06:40:21;;;;;;;23.95;4.55;;;;;;;11.63;49.94;102169.56;1738399;81;29684;-56
2022/05/06 06:42:50;;;;;;;14.75;3.77;;;;;;;11.75;49.63;102165.51;1738462;82;25808;-57
2022/05/06 06:45:21;;;;;;;17.75;4.53;;;;;;;11.91;49.33;102168.48;1690181;82;25791;-57
2022/05/06 06:47:58;;;;;;;8.78;3.58;;;;;;;12.07;48.39;102162.84;1737564;81;26474;-57
2022/05/06 06:50:32;;;;;;;12.90;2.83;;;;;;;12.23;47.75;102161.23;1742257;82;25970;-57
2022/05/06 06:53:13;;;;;;;14.05;3.02;;;;;;;12.41;46.95;102157.69;1745322;82;27585;-57
2022/05/06 06:55:40;;;;;;;12.05;2.55;;;;;;;12.57;45.22;102156.02;1745552;82;25726;-56
2022/05/06 06:58:07;;;;;;;14.55;2.62;;;;;;;12.72;44.83;102159.41;1745240;82;25680;-56
2022/05/06 07:00:35;;;;;;;13.95;3.15;;;;;;;12.83;44.43;102158.11;1745431;82;25799;-56
2022/05/06 07:03:02;;;;;;;7.33;2.47;;;;;;;12.96;44.24;102157.16;1746891;82;25706;-57
2022/05/06 07:05:29;;;;;;;12.05;2.22;;;;;;;13.11;42.36;102155.99;1747674;82;27319;-57
2022/05/06 07:13:30;;;;;;;13.00;2.12;;;;;;;13.52;39.56;102148.35;1747921;82;25747;-57
2022/05/06 07:15:57;;;;;;;8.05;2.22;;;;;;;13.69;39.35;102137.52;1747851;81;25846;-57
2022/05/06 07:18:24;;;;;;;9.45;1.95;;;;;;;13.86;37.50;102146.99;1747911;82;27534;-58
2022/05/06 07:20:54;;;;;;;8.95;2.08;;;;;;;14.04;36.33;102151.39;1747810;82;25916;-57
2022/05/06 07:23:21;;;;;;;18.17;7.65;;;;;;;14.22;35.33;102137.33;1747855;82;25696;-57
2022/05/06 07:25:49;;;;;;;9.35;2.12;;;;;;;14.44;33.82;102135.56;1748087;82;25775;-56
2022/05/06 07:28:15;;;;;;;11.97;1.62;;;;;;;14.61;33.87;102136.35;1748028;82;25799;-56
2022/05/06 07:30:44;;;;;;;7.08;1.60;;;;;;;14.76;33.51;102134.70;1748070;82;27598;-57
2022/05/06 07:33:11;;;;;;;7.75;2.17;;;;;;;14.91;32.87;102134.78;1736097;80;25760;-56
2022/05/06 07:35:38;;;;;;;8.65;2.65;;;;;;;15.07;32.34;102136.16;1731015;82;26346;-57
2022/05/06 07:38:05;;;;;;;7.60;1.65;;;;;;;15.18;32.14;102137.45;1730603;82;25884;-56
2022/05/06 07:40:32;;;;;;;4.15;1.67;;;;;;;15.28;31.09;102132.95;1731030;82;25945;-56
2022/05/06 07:42:59;;;;;;;6.47;1.42;;;;;;;15.36;32.16;102135.48;1730614;81;27454;-57
2022/05/06 07:45:25;;;;;;;3.58;1.45;;;;;;;15.44;31.40;102135.67;1730675;82;25792;-57
2022/05/06 07:47:52;;;;;;;9.58;1.67;;;;;;;15.56;31.78;102129.66;1730898;82;25626;-57
2022/05/06 07:50:20;;;;;;;15.30;2.05;;;;;;;15.68;31.19;102123.16;1730995;81;26820;-57
2022/05/06 07:52:46;;;;;;;5.25;1.82;;;;;;;15.78;30.08;102127.25;1730822;82;26346;-56
2022/05/06 07:55:19;;;;;;;6.47;2.45;;;;;;;15.83;30.23;102125.48;1736974;82;27576;-57
2022/05/06 07:57:41;;;;;;;18.50;2.40;;;;;;;15.91;30.37;102129.75;1739627;82;25868;-57
2022/05/06 08:00:10;;;;;;;12.07;1.85;;;;;;;16.01;29.35;102127.05;1741856;82;25513;-57
2022/05/06 08:05:27;;;;;;;4.00;1.40;;;;;;;16.24;29.18;102131.74;1720012;82;25785;-57
2022/05/06 08:07:52;;;;;;;6.62;1.65;;;;;;;16.37;29.19;102124.20;1712064;83;27652;-57
2022/05/06 08:10:19;;;;;;;8.73;1.75;;;;;;;16.46;29.00;102122.48;1711433;83;25734;-57
2022/05/06 08:12:47;;;;;;;13.55;1.80;;;;;;;16.56;29.49;102123.34;1712284;83;25786;-57
2022/05/06 08:15:14;;;;;;;10.08;1.70;;;;;;;16.67;28.81;102124.20;1728264;82;26844;-57
2022/05/06 08:17:41;;;;;;;28.87;2.80;;;;;;;16.76;28.25;102128.78;1733741;82;25717;-57
2022/05/06 08:20:09;;;;;;;13.53;1.50;;;;;;;16.83;28.35;102133.14;1735267;82;28409;-57
2022/05/06 08:22:37;;;;;;;15.65;1.70;;;;;;;16.93;28.65;102133.12;1735820;81;25487;-57
2022/05/06 08:25:09;;;;;;;6.58;1.87;;;;;;;17.04;28.59;102130.28;1762707;81;26087;-57
2022/05/06 08:27:41;;;;;;;12.03;1.25;;;;;;;17.19;28.13;102132.05;1760465;81;26011;-57
2022/05/06 08:30:12;;;;;;;12.45;1.92;;;;;;;17.33;28.18;102132.09;1756864;81;25953;-57
2022/05/06 08:32:40;;;;;;;12.73;1.82;;;;;;;17.45;27.03;102126.80;1764647;80;28176;-57
2022/05/06 08:35:09;;;;;;;7.62;1.77;;;;;;;17.53;26.96;102132.36;1756722;81;25728;-56
2022/05/06 08:37:47;;;;;;;4.37;1.70;;;;;;;17.66;26.40;102121.65;1757193;81;25835;-56
2022/05/06 08:40:24;;;;;;;5.75;1.75;;;;;;;17.81;26.34;102122.02;1756957;81;26721;-57
2022/05/06 08:42:51;;;;;;;6.28;1.37;;;;;;;17.96;25.77;102120.52;1757034;81;25794;-57
2022/05/06 08:50:56;;;;;;;14.18;2.05;;;;;;;18.39;23.97;102119.45;1778176;80;25849;-57
2022/05/06 08:53:28;;;;;;;7.00;2.58;;;;;;;18.54;24.28;102110.73;1786544;80;25793;-57
2022/05/06 08:55:58;;;;;;;24.70;11.45;;;;;;;18.68;24.49;102114.28;1786320;79;25752;-57
2022/05/06 08:58:27;;;;;;;9.25;2.17;;;;;;;18.83;24.75;102119.16;1786679;80;27639;-56
2022/05/06 09:01:10;;;;;;;6.28;1.80;;;;;;;19.04;24.73;102119.70;1782854;79;25793;-57
2022/05/06 09:03:40;;;;;;;11.07;4.27;;;;;;;19.23;24.31;102114.54;1746628;82;25857;-56
2022/05/06 09:06:20;;;;;;;4.10;1.40;;;;;;;19.37;22.84;102116.31;1746451;82;26026;-57
2022/05/06 09:08:49;;;;;;;4.87;1.90;;;;;;;19.47;22.47;102117.58;1746527;82;25824;-57
2022/05/06 09:12:40;;;;;;;7.20;1.50;;;;;;;19.59;22.35;102109.43;1746956;81;28368;-57
2022/05/06 09:14:01;;;;;;;11.57;1.60;;;;;;;19.77;22.16;102107.11;1746432;82;25870;-58
2022/05/06 09:16:41;;;;;;;14.93;1.62;;;;;;;19.99;22.83;102109.29;1746578;81;25714;-57
2022/05/06 09:19:27;;;;;;;3.83;1.72;;;;;;;20.32;22.61;102106.62;1746396;82;25869;-57
2022/05/06 09:22:14;;;;;;;10.38;2.02;;;;;;;20.74;22.26;102099.87;1746654;82;25727;-57
2022/05/06 09:24:41;;;;;;;10.48;1.47;;;;;;;21.32;21.92;102094.29;1742254;82;27481;-56
2022/05/06 09:27:11;;;;;;;9.18;1.52;;;;;;;21.85;20.04;102089.16;1672444;85;25799;-56
2022/05/06 09:29:48;;;;;;;15.08;4.00;;;;;;;22.10;20.54;102089.02;1672358;85;25746;-58
2022/05/06 09:32:29;;;;;;;6.40;2.00;;;;;;;22.59;20.94;102086.46;1683993;83;26195;-57
2022/05/06 09:35:13;;;;;;;15.13;2.02;;;;;;;23.09;20.31;102084.95;1711470;83;25766;-58
2022/05/06 09:37:47;;;;;;;5.17;1.35;;;;;;;23.52;19.45;102087.08;1711892;83;27392;-58
2022/05/06 09:40:21;;;;;;;11.38;1.87;;;;;;;23.99;18.68;102083.55;1711274;83;25905;-58
2022/05/06 09:42:59;;;;;;;7.00;3.75;;;;;;;24.48;18.95;102079.73;1711938;83;25740;-57
2022/05/06 09:45:39;;;;;;;12.53;3.17;;;;;;;24.87;18.75;102084.42;1711458;83;25830;-57
2022/05/06 09:48:11;;;;;;;3.70;1.80;;;;;;;25.38;18.00;102078.60;1711622;83;25510;-58
2022/05/06 09:50:47;;;;;;;6.00;1.40;;;;;;;25.57;16.93;102076.19;1686517;83;27576;-57
2022/05/06 09:53:18;;;;;;;4.47;1.15;;;;;;;25.91;17.44;102065.62;1672056;85;25805;-57
2022/05/06 09:55:48;;;;;;;11.28;2.22;;;;;;;26.31;16.42;102070.41;1671921;85;25833;-58
2022/05/06 09:58:16;;;;;;;3.50;1.82;;;;;;;26.62;17.03;102057.05;1672246;85;25858;-58
2022/05/06 10:00:44;;;;;;;12.68;1.80;;;;;;;26.82;16.06;102058.44;1671923;85;25746;-58
2022/05/06 10:03:11;;;;;;;4.28;1.67;;;;;;;27.09;16.28;102057.02;1672676;85;27660;-58
2022/05/06 10:05:39;;;;;;;3.90;1.25;;;;;;;27.33;15.54;102053.56;1672415;85;26453;-58
2022/05/06 10:08:13;;;;;;;4.33;1.17;;;;;;;27.68;15.46;102057.91;1672657;84;25783;-58
2022/05/06 10:10:48;;;;;;;6.80;1.25;;;;;;;27.84;15.03;102057.94;1684674;84;25899;-57
2022/05/06 10:13:22;;;;;;;10.80;1.50;;;;;;;27.97;15.19;102051.48;1724377;81;25539;-58
2022/05/06 10:15:52;;;;;;;11.43;2.37;;;;;;;28.34;15.08;102053.59;1752653;81;27863;-58
2022/05/06 10:18:40;;;;;;;9.28;1.55;;;;;;;28.73;14.77;102051.05;1753262;81;25656;-59
2022/05/06 10:21:14;;;;;;;4.90;1.80;;;;;;;29.16;14.97;102049.34;1753037;81;25776;-57
2022/05/06 10:23:54;;;;;;;8.73;1.40;;;;;;;29.72;14.34;102042.41;1752696;81;25891;-57
2022/05/06 10:26:45;;;;;;;12.85;1.40;;;;;;;30.18;14.30;102038.66;1751219;81;25661;-57
2022/05/06 10:32:26;;;;;;;4.25;1.72;;;;;;;31.18;13.62;102029.69;1736980;81;25687;-56
2022/05/06 10:35:05;;;;;;;3.70;1.17;;;;;;;31.50;13.46;102034.26;1700507;82;26556;-58
2022/05/06 10:37:39;;;;;;;14.10;1.30;;;;;;;31.71;12.50;102022.72;1699639;83;25807;-58
2022/05/06 10:40:28;;;;;;;;;;;;;;;31.89;13.23;102021.64;1703057;84;25738;-58
2022/05/06 10:42:55;;;;;;;16.00;2.95;;;;;;;31.89;11.35;102008.59;1701012;83;27632;-58
2022/05/06 10:45:27;;;;;;;9.08;1.75;;;;;;;31.84;12.71;102013.52;1700446;83;26130;-58
2022/05/06 10:47:54;;;;;;;10.18;1.45;;;;;;;31.95;12.89;102013.70;1699365;84;25794;-58
2022/05/06 10:50:24;;;;;;;9.43;1.72;;;;;;;32.16;12.40;102007.39;1720281;82;25828;-58
2022/05/06 10:52:50;;;;;;;5.92;1.20;;;;;;;32.45;11.95;102007.33;1738046;82;25770;-57
2022/05/06 10:55:20;;;;;;;13.90;1.67;;;;;;;32.78;12.05;102001.44;1733384;82;27656;-58
2022/05/06 10:57:59;;;;;;;9.48;1.35;;;;;;;33.10;11.95;101999.91;1698799;84;26309;-58
2022/05/06 11:00:29;;;;;;;7.17;1.27;;;;;;;33.30;11.75;101991.52;1701625;82;25880;-58
2022/05/06 11:03:00;;;;;;;9.85;1.47;;;;;;;33.33;11.39;101993.82;1701225;84;25947;-58
2022/05/06 11:05:30;;;;;;;5.60;1.60;;;;;;;33.49;11.19;101982.27;1699442;83;25615;-59
2022/05/06 11:07:59;;;;;;;11.00;1.50;;;;;;;33.32;11.04;101977.62;1700075;84;27635;-59
2022/05/06 11:10:30;;;;;;;6.90;1.30;;;;;;;33.27;11.04;101979.48;1699467;84;25906;-58
2022/05/06 11:12:59;;;;;;;11.33;1.37;;;;;;;33.44;11.03;101974.69;1700148;82;25742;-58
2022/05/06 11:15:32;;;;;;;12.30;1.27;;;;;;;33.85;11.19;101975.14;1700483;84;25856;-58
2022/05/06 11:18:04;;;;;;;6.15;1.17;;;;;;;34.30;11.09;101972.98;1700430;83;25734;-58
2022/05/06 11:20:39;;;;;;;10.40;1.45;;;;;;;34.43;10.34;101970.31;1701148;84;27474;-58
2022/05/06 11:23:09;;;;;;;13.35;1.50;;;;;;;34.62;10.77;101965.67;1700357;84;25715;-59
2022/05/06 11:25:45;;;;;;;15.83;1.87;;;;;;;34.57;10.40;101958.10;1701948;83;26280;-58
2022/05/06 11:28:20;;;;;;;13.88;1.75;;;;;;;34.73;10.46;101953.45;1701366;84;25714;-58
2022/05/06 11:30:52;;;;;;;8.73;1.27;;;;;;;34.87;10.15;101955.77;1702402;84;25979;-58
2022/05/06 11:33:28;;;;;;;6.47;1.05;;;;;;;35.11;10.23;101957.54;1700777;84;28170;-60
2022/05/06 11:36:05;;;;;;;11.15;1.35;;;;;;;35.27;10.02;101958.44;1700164;84;25819;-59
2022/05/06 11:38:46;;;;;;;8.60;1.40;;;;;;;35.39;9.81;101951.19;1700068;84;25786;-58
2022/05/06 11:41:15;;;;;;;8.40;1.20;;;;;;;35.53;10.12;101948.19;1698847;84;26788;-58
2022/05/06 11:43:46;;;;;;;6.42;1.20;;;;;;;35.75;9.74;101947.08;1699573;82;26048;-59
2022/05/06 11:49:08;;;;;;;10.95;1.57;;;;;;;35.93;9.59;101935.92;1702454;83;25802;-58
2022/05/06 11:51:43;;;;;;;4.28;1.20;;;;;;;35.53;9.76;101935.59;1706836;83;25842;-57
2022/05/06 11:54:10;;;;;;;7.95;1.95;;;;;;;35.39;9.80;101937.20;1699881;84;25854;-58
2022/05/06 11:56:38;;;;;;;7.78;1.10;;;;;;;35.81;9.94;101929.19;1702197;84;25719;-58
2022/05/06 11:59:07;;;;;;;9.23;1.42;;;;;;;36.29;9.78;101928.88;1708472;84;28450;-58
2022/05/06 12:01:35;;;;;;;4.90;1.20;;;;;;;36.79;9.26;101924.83;1707877;83;25773;-58
2022/05/06 12:04:06;;;;;;;12.68;2.02;;;;;;;37.03;8.62;101919.14;1704288;84;25767;-58
2022/05/06 12:06:41;;;;;;;12.75;1.50;;;;;;;37.42;8.47;101916.95;1703883;83;26556;-58
2022/05/06 12:09:18;;;;;;;8.38;1.20;;;;;;;37.52;8.35;101909.04;1699806;84;26333;-58
2022/05/06 12:11:46;;;;;;;12.80;1.30;;;;;;;37.34;8.53;101910.52;1699804;84;28213;-58